createdAt,value
2023-03-08T00:03:44.597Z,10.70
2023-03-08T00:08:39.620Z,10.57
2023-03-08T00:13:33.254Z,10.97
2023-03-08T00:18:26.541Z,10.57
2023-03-08T00:23:19.834Z,10.73
2023-03-08T00:28:14.548Z,11.87
2023-03-08T00:33:07.873Z,10.97
2023-03-08T00:38:01.105Z,10.43
2023-03-08T00:42:54.365Z,11.07
2023-03-08T00:47:49.056Z,11.13
2023-03-08T00:52:42.386Z,11.40
2023-03-08T00:57:35.696Z,11.37
2023-03-08T01:02:29.045Z,11.10
2023-03-08T01:07:26.553Z,11.07
2023-03-08T01:12:22.720Z,11.17
2023-03-08T01:17:16.019Z,11.50
2023-03-08T01:22:09.348Z,12.10
2023-03-08T01:27:04.049Z,14.53
2023-03-08T01:31:57.375Z,14.23
2023-03-08T01:36:50.657Z,14.37
2023-03-08T01:41:44.016Z,14.43
2023-03-08T01:46:38.960Z,18.67
2023-03-08T01:51:41.209Z,16.70
2023-03-08T01:56:36.656Z,14.70
2023-03-08T02:01:30.725Z,12.37
2023-03-08T02:06:25.572Z,12.23
2023-03-08T02:11:21.753Z,12.43
2023-03-08T02:16:17.896Z,12.00
2023-03-08T02:21:11.178Z,12.20
2023-03-08T02:26:07.040Z,11.83
2023-03-08T02:31:00.478Z,11.80
2023-03-08T02:35:54.209Z,11.90
2023-03-08T02:40:51.451Z,12.17
2023-03-08T02:45:46.717Z,12.03
2023-03-08T02:50:40.080Z,12.30
2023-03-08T02:55:36.129Z,12.03
2023-03-08T03:00:29.500Z,12.17
2023-03-08T03:05:24.212Z,12.27
2023-03-08T03:10:17.855Z,11.53
2023-03-08T03:15:13.198Z,12.33
2023-03-08T03:20:11.499Z,12.17
2023-03-08T03:25:07.507Z,12.83
2023-03-08T03:30:00.738Z,12.73
2023-03-08T03:34:54.234Z,12.37
2023-03-08T03:39:47.537Z,12.20
2023-03-08T03:44:42.533Z,12.60
2023-03-08T03:49:35.892Z,12.70
2023-03-08T03:54:29.828Z,12.70
2023-03-08T03:59:25.626Z,11.80
2023-03-08T04:04:21.584Z,11.90
2023-03-08T04:09:18.247Z,11.90
2023-03-08T04:14:12.324Z,11.93
2023-03-08T04:19:09.151Z,13.10
2023-03-08T04:24:03.905Z,12.40
2023-03-08T04:28:57.489Z,12.77
2023-03-08T04:33:52.353Z,12.00
2023-03-08T04:38:47.035Z,12.60
2023-03-08T04:43:45.428Z,12.30
2023-03-08T04:48:39.355Z,11.60
2023-03-08T04:53:33.812Z,13.30
2023-03-08T04:58:27.644Z,11.93
2023-03-08T05:03:22.503Z,12.07
2023-03-08T05:08:16.317Z,11.97
2023-03-08T05:13:09.846Z,12.77
2023-03-08T05:18:03.135Z,12.47
2023-03-08T05:22:59.425Z,13.47
2023-03-08T05:27:54.453Z,12.80
2023-03-08T05:32:47.798Z,12.83
2023-03-08T05:37:41.211Z,11.93
2023-03-08T05:42:36.028Z,11.90
2023-03-08T05:47:30.488Z,12.73
2023-03-08T05:52:23.822Z,12.73
2023-03-08T05:57:17.169Z,12.87
2023-03-08T06:02:11.841Z,13.73
2023-03-08T06:07:05.429Z,13.60
2023-03-08T06:11:58.755Z,13.67
2023-03-08T06:16:52.054Z,13.80
2023-03-08T06:21:46.708Z,13.60
2023-03-08T06:26:40.003Z,12.83
2023-03-08T06:31:33.284Z,12.27
2023-03-08T06:36:26.625Z,13.20
2023-03-08T06:41:22.363Z,13.03
2023-03-08T06:46:18.443Z,13.00
2023-03-08T06:51:12.197Z,14.87
2023-03-08T06:56:07.217Z,13.60
2023-03-08T07:01:04.312Z,13.40
2023-03-08T07:06:01.369Z,12.77
2023-03-08T07:10:54.728Z,12.77
2023-03-08T07:15:48.076Z,11.47
2023-03-08T07:20:42.971Z,11.77
2023-03-08T07:25:38.955Z,12.10
2023-03-08T07:30:32.300Z,11.57
2023-03-08T07:35:25.709Z,11.23
2023-03-08T07:40:21.068Z,10.97
2023-03-08T07:45:15.539Z,12.93
2023-03-08T07:50:10.792Z,19.97
2023-03-08T07:55:04.334Z,16.73
2023-03-08T07:59:59.010Z,10.90
2023-03-08T08:04:52.371Z,8.73
2023-03-08T08:09:45.714Z,8.67
2023-03-08T08:14:39.251Z,8.13
2023-03-08T08:19:33.948Z,7.83
2023-03-08T08:24:27.904Z,8.10
2023-03-08T08:29:21.628Z,7.70
2023-03-08T08:34:15.082Z,8.37
2023-03-08T08:39:09.927Z,8.33
2023-03-08T08:44:04.072Z,8.80
2023-03-08T08:48:58.962Z,9.10
2023-03-08T08:53:52.713Z,8.13
2023-03-08T08:58:48.237Z,7.40
2023-03-08T09:03:41.600Z,6.53
2023-03-08T09:08:34.979Z,7.33
2023-03-08T09:13:28.427Z,7.70
2023-03-08T09:18:23.323Z,6.83
2023-03-08T09:23:16.708Z,6.77
2023-03-08T09:28:10.333Z,6.67
2023-03-08T09:33:04.093Z,5.03
2023-03-08T09:37:59.868Z,5.60
2023-03-08T09:42:56.645Z,5.93
2023-03-08T09:47:56.878Z,5.37
2023-03-08T09:52:57.279Z,5.67
2023-03-08T09:57:56.907Z,5.30
2023-03-08T10:03:07.008Z,5.57
2023-03-08T10:08:10.172Z,5.47
2023-03-08T10:13:29.905Z,4.67
2023-03-08T10:18:36.480Z,5.50
2023-03-08T10:23:32.656Z,5.77
2023-03-08T10:28:28.830Z,5.63
2023-03-08T10:33:25.482Z,5.53
2023-03-08T10:38:19.157Z,5.57
2023-03-08T10:43:26.279Z,5.50
2023-03-08T10:48:22.628Z,5.50
2023-03-08T10:53:22.797Z,5.67
2023-03-08T10:58:32.442Z,5.30
2023-03-08T11:03:28.947Z,4.90
2023-03-08T11:08:27.446Z,4.80
2023-03-08T11:13:31.735Z,4.60
2023-03-08T11:18:51.142Z,4.13
2023-03-08T11:23:52.605Z,4.60
2023-03-08T11:29:07.151Z,4.73
2023-03-08T11:34:39.766Z,4.80
2023-03-08T11:39:40.620Z,5.10
2023-03-08T11:45:00.932Z,5.47
2023-03-08T11:50:12.938Z,4.80
2023-03-08T11:55:36.721Z,4.57
2023-03-08T12:00:37.184Z,4.27
2023-03-08T12:05:36.948Z,4.53
2023-03-08T12:10:44.673Z,4.73
2023-03-08T12:15:48.231Z,4.43
2023-03-08T12:20:45.826Z,4.13
2023-03-08T12:25:44.604Z,3.97
2023-03-08T12:30:55.967Z,4.77
2023-03-08T12:35:59.430Z,4.27
2023-03-08T12:40:55.379Z,4.23
2023-03-08T12:46:03.478Z,4.13
2023-03-08T12:51:09.419Z,4.30
2023-03-08T12:56:28.598Z,4.27
2023-03-08T13:01:37.079Z,4.17
2023-03-08T13:07:23.406Z,4.27
2023-03-08T13:12:35.378Z,4.27
2023-03-08T13:17:39.528Z,4.10
2023-03-08T13:22:47.821Z,4.10
2023-03-08T13:27:55.424Z,4.10
2023-03-08T13:32:51.262Z,4.13
2023-03-08T13:37:55.171Z,4.17
2023-03-08T13:42:56.702Z,3.50
2023-03-08T13:47:51.301Z,3.80
2023-03-08T13:52:46.361Z,4.03
2023-03-08T13:57:42.270Z,3.37
2023-03-08T14:02:35.671Z,3.43
2023-03-08T14:07:32.198Z,3.10
2023-03-08T14:12:32.095Z,3.27
2023-03-08T14:17:29.273Z,3.00
2023-03-08T14:22:38.275Z,3.30
2023-03-08T14:27:42.551Z,3.60
2023-03-08T14:32:36.043Z,3.53
2023-03-08T14:37:32.451Z,3.30
2023-03-08T14:42:32.106Z,3.00
2023-03-08T14:47:29.975Z,3.23
2023-03-08T14:52:23.337Z,3.17
2023-03-08T14:57:21.502Z,2.83
2023-03-08T15:02:18.069Z,2.70
2023-03-08T15:07:21.155Z,2.70
2023-03-08T15:12:14.588Z,2.90
2023-03-08T15:17:07.952Z,2.97
2023-03-08T15:22:01.986Z,3.40
2023-03-08T15:26:57.277Z,2.70
2023-03-08T15:31:50.520Z,2.97
2023-03-08T15:36:43.765Z,2.83
2023-03-08T15:41:37.041Z,3.20
2023-03-08T15:46:31.800Z,3.90
2023-03-08T15:51:32.869Z,4.27
2023-03-08T15:56:26.663Z,4.00
2023-03-08T16:01:20.729Z,4.03
2023-03-08T16:06:17.614Z,3.90
2023-03-08T16:11:13.575Z,3.90
2023-03-08T16:16:08.354Z,3.73
2023-03-08T16:21:02.142Z,3.40
2023-03-08T16:26:15.322Z,3.80
2023-03-08T16:31:10.205Z,4.00
2023-03-08T16:36:03.784Z,4.27
2023-03-08T16:41:12.212Z,4.97
2023-03-08T16:46:06.835Z,4.20
2023-03-08T16:51:01.136Z,4.73
2023-03-08T16:55:55.302Z,4.20
2023-03-08T17:00:50.314Z,4.80
2023-03-08T17:05:45.876Z,4.80
2023-03-08T17:10:40.304Z,5.33
2023-03-08T17:15:40.806Z,5.30
2023-03-08T17:20:36.497Z,5.53
2023-03-08T17:25:29.868Z,6.23
2023-03-08T17:30:23.889Z,6.67
2023-03-08T17:35:17.343Z,7.43
2023-03-08T17:40:15.011Z,7.73
2023-03-08T17:45:09.868Z,8.30
2023-03-08T17:50:03.879Z,8.00
2023-03-08T17:54:57.256Z,8.67
2023-03-08T17:59:54.004Z,10.10
2023-03-08T18:04:49.343Z,9.50
2023-03-08T18:09:42.974Z,9.63
2023-03-08T18:14:39.982Z,8.67
2023-03-08T18:19:35.643Z,9.33
2023-03-08T18:24:29.472Z,10.43
2023-03-08T18:29:22.869Z,9.73
2023-03-08T18:34:16.300Z,11.13
2023-03-08T18:39:14.772Z,11.13
2023-03-08T18:44:08.423Z,10.40
2023-03-08T18:49:05.995Z,10.17
2023-03-08T18:54:00.493Z,10.73
2023-03-08T18:59:02.981Z,11.37
2023-03-08T19:04:06.388Z,11.07
2023-03-08T19:08:59.827Z,10.70
2023-03-08T19:13:55.350Z,10.53
2023-03-08T19:18:51.292Z,11.93
2023-03-08T19:23:45.107Z,12.13
2023-03-08T19:28:38.685Z,10.83
2023-03-08T19:33:33.532Z,13.10
2023-03-08T19:38:26.994Z,12.50
2023-03-08T19:43:20.330Z,15.67
2023-03-08T19:48:17.095Z,46.13
2023-03-08T19:53:13.027Z,15.57
2023-03-08T19:58:09.363Z,8.40
2023-03-08T20:03:02.762Z,7.10
2023-03-08T20:07:56.147Z,5.87
2023-03-08T20:12:52.609Z,5.50
2023-03-08T20:17:48.265Z,5.10
2023-03-08T20:22:42.353Z,4.90
2023-03-08T20:27:37.660Z,3.77
2023-03-08T20:32:32.781Z,3.30
2023-03-08T20:37:26.362Z,2.83
2023-03-08T20:42:22.318Z,2.80
2023-03-08T20:47:16.013Z,2.80
2023-03-08T20:52:13.656Z,2.33
2023-03-08T20:57:06.980Z,2.10
2023-03-08T21:02:00.330Z,2.40
2023-03-08T21:06:55.101Z,2.10
2023-03-08T21:11:51.128Z,2.40
2023-03-08T21:16:44.809Z,2.50
2023-03-08T21:21:40.591Z,2.23
2023-03-08T21:26:35.745Z,2.07
2023-03-08T21:31:31.177Z,2.10
2023-03-08T21:36:25.642Z,2.63
2023-03-08T21:41:21.336Z,2.33
2023-03-08T21:46:14.749Z,2.20
2023-03-08T21:51:10.449Z,2.30
2023-03-08T21:56:04.113Z,1.90
2023-03-08T22:00:57.884Z,2.10
2023-03-08T22:05:51.504Z,2.10
2023-03-08T22:10:46.447Z,2.10
2023-03-08T22:15:39.999Z,2.10
2023-03-08T22:20:33.333Z,2.03
2023-03-08T22:25:26.703Z,2.23
2023-03-08T22:30:21.874Z,2.20
2023-03-08T22:35:16.971Z,2.10
2023-03-08T22:40:13.124Z,1.87
2023-03-08T22:45:08.373Z,2.00
2023-03-08T22:50:03.983Z,2.00
2023-03-08T22:54:58.007Z,1.80
2023-03-08T22:59:51.391Z,1.73
2023-03-08T23:04:44.779Z,1.80
2023-03-08T23:09:39.686Z,1.70
2023-03-08T23:14:33.317Z,2.20
2023-03-08T23:19:26.811Z,2.00
2023-03-08T23:24:21.227Z,2.00
2023-03-08T23:29:16.490Z,1.77
2023-03-08T23:34:10.000Z,1.60
2023-03-08T23:39:04.180Z,1.57
2023-03-08T23:44:00.418Z,1.10
2023-03-08T23:48:58.780Z,1.13
2023-03-08T23:53:54.268Z,0.90
2023-03-08T23:58:51.021Z,0.93
